Time;durP1;ratioP1;P1;durP2;ratioP2;P2;SDS_P1;SDS_P2;PMS_P1;PMS_P2;Temp;Humidity;BMP_temperature;BMP_pressure;BME280_temperature;BME280_humidity;BME280_pressure;Samples;Min_cycle;Max_cycle;Signal;HPM_P1;HPM_P2
2023/03/18 00:00:41;;;;;;;29.20;26.10;;;;;;;;;;5122107;27;20043;-80
2023/03/18 00:03:07;;;;;;;30.13;26.80;;;;;;;;;;5124982;27;20035;-80
2023/03/18 00:05:33;;;;;;;32.75;28.08;;;;;;;;;;5130030;27;20516;-80
2023/03/18 00:08:01;;;;;;;31.90;28.60;;;;;;;;;;5129028;27;20039;-80
2023/03/18 00:10:27;;;;;;;34.75;30.48;;;;;;;;;;5132862;27;20054;-80
2023/03/18 00:12:53;;;;;;;34.17;28.77;;;;;;;;;;5129247;27;20043;-80
2023/03/18 00:15:19;;;;;;;33.17;29.60;;;;;;;;;;5128169;27;20114;-80
2023/03/18 00:17:47;;;;;;;33.00;29.13;;;;;;;;;;5130461;27;20039;-80
2023/03/18 00:20:15;;;;;;;34.33;30.13;;;;;;;;;;5127482;27;20387;-79
2023/03/18 00:22:42;;;;;;;33.05;28.63;;;;;;;;;;5144767;27;20070;-80
2023/03/18 00:25:09;;;;;;;37.60;29.27;;;;;;;;;;5152888;27;20039;-79
2023/03/18 00:27:36;;;;;;;35.35;29.85;;;;;;;;;;5129457;27;20042;-79
2023/03/18 00:30:03;;;;;;;35.58;30.52;;;;;;;;;;5147987;27;20081;-80
2023/03/18 00:32:30;;;;;;;33.95;30.30;;;;;;;;;;5132031;27;20031;-80
2023/03/18 00:34:56;;;;;;;37.65;30.80;;;;;;;;;;5152031;27;20049;-79
2023/03/18 00:37:29;;;;;;;40.85;31.10;;;;;;;;;;5120409;27;20043;-80
2023/03/18 00:40:03;;;;;;;37.30;29.92;;;;;;;;;;5135274;27;20043;-80
2023/03/18 00:42:36;;;;;;;38.33;32.03;;;;;;;;;;5124929;27;20050;-80
2023/03/18 00:45:03;;;;;;;37.17;30.02;;;;;;;;;;5127703;27;20556;-79
2023/03/18 00:47:29;;;;;;;39.40;32.33;;;;;;;;;;5147726;27;20383;-80
2023/03/18 00:49:55;;;;;;;40.05;31.85;;;;;;;;;;5119279;27;20051;-79
2023/03/18 00:52:21;;;;;;;41.97;34.35;;;;;;;;;;5129527;27;20493;-79
2023/03/18 00:54:47;;;;;;;40.90;33.53;;;;;;;;;;5123131;27;20050;-79
2023/03/18 00:57:13;;;;;;;43.67;34.22;;;;;;;;;;5122845;27;20527;-80
2023/03/18 00:59:40;;;;;;;41.70;33.38;;;;;;;;;;5146987;27;20121;-80
2023/03/18 01:02:06;;;;;;;44.78;34.08;;;;;;;;;;5145155;27;20494;-80
2023/03/18 01:04:32;;;;;;;41.47;33.33;;;;;;;;;;5142221;27;20070;-79
2023/03/18 01:06:58;;;;;;;45.08;36.33;;;;;;;;;;5125454;27;20043;-80
2023/03/18 01:09:24;;;;;;;43.92;34.72;;;;;;;;;;5148214;27;20042;-80
2023/03/18 01:11:50;;;;;;;44.50;34.90;;;;;;;;;;5128423;27;20077;-79
2023/03/18 01:14:18;;;;;;;45.88;34.70;;;;;;;;;;5139913;27;20117;-79
2023/03/18 01:16:45;;;;;;;42.63;34.15;;;;;;;;;;5142140;27;20095;-80
2023/03/18 01:19:12;;;;;;;43.00;34.97;;;;;;;;;;5136724;27;20042;-80
2023/03/18 01:21:39;;;;;;;45.40;36.63;;;;;;;;;;5139582;27;20512;-80
2023/03/18 01:24:05;;;;;;;46.13;35.63;;;;;;;;;;5096997;27;20565;-80
2023/03/18 01:26:31;;;;;;;45.40;36.83;;;;;;;;;;5120551;27;20050;-80
2023/03/18 01:28:58;;;;;;;46.28;36.88;;;;;;;;;;5144442;27;20045;-80
2023/03/18 01:31:24;;;;;;;44.53;35.45;;;;;;;;;;5142279;27;20050;-80
2023/03/18 01:33:51;;;;;;;45.95;36.00;;;;;;;;;;5149636;27;20039;-80
2023/03/18 01:36:17;;;;;;;43.83;36.80;;;;;;;;;;5147708;27;20126;-79
2023/03/18 01:38:43;;;;;;;48.20;36.40;;;;;;;;;;5134921;27;20392;-80
2023/03/18 01:41:10;;;;;;;48.17;38.17;;;;;;;;;;5131140;27;20046;-80
2023/03/18 01:43:39;;;;;;;50.72;37.90;;;;;;;;;;5131221;27;20493;-79
2023/03/18 01:46:24;;;;;;;52.75;38.97;;;;;;;;;;5146173;27;20050;-81
2023/03/18 01:48:50;;;;;;;47.65;38.13;;;;;;;;;;5140259;27;20047;-80
2023/03/18 01:51:17;;;;;;;52.05;38.95;;;;;;;;;;5128187;27;20043;-80
2023/03/18 01:53:46;;;;;;;47.92;40.03;;;;;;;;;;5123727;27;20038;-80
2023/03/18 01:56:13;;;;;;;49.58;39.35;;;;;;;;;;5121695;27;20849;-80
2023/03/18 01:58:44;;;;;;;47.97;39.22;;;;;;;;;;5141541;27;20113;-79
2023/03/18 02:01:24;;;;;;;53.63;40.58;;;;;;;;;;5140184;27;20046;-80
2023/03/18 02:03:51;;;;;;;51.08;42.03;;;;;;;;;;5127067;27;20558;-80
2023/03/18 02:06:17;;;;;;;53.05;40.70;;;;;;;;;;5114624;28;20043;-80
2023/03/18 02:08:43;;;;;;;56.10;41.63;;;;;;;;;;5127327;27;20478;-80
2023/03/18 02:11:10;;;;;;;52.25;40.78;;;;;;;;;;5152464;27;20047;-80
2023/03/18 02:13:39;;;;;;;57.28;44.33;;;;;;;;;;5119702;27;20049;-80
2023/03/18 02:16:07;;;;;;;51.95;41.92;;;;;;;;;;5153696;27;20136;-80
2023/03/18 02:18:37;;;;;;;58.00;44.47;;;;;;;;;;5126413;27;20057;-79
2023/03/18 02:21:15;;;;;;;59.35;44.10;;;;;;;;;;5125151;28;20096;-79
2023/03/18 02:23:49;;;;;;;59.28;43.00;;;;;;;;;;5134419;27;20463;-80
2023/03/18 02:26:21;;;;;;;61.58;45.67;;;;;;;;;;5131112;27;20046;-80
2023/03/18 02:28:49;;;;;;;53.92;43.35;;;;;;;;;;5141249;27;20500;-80
2023/03/18 02:31:16;;;;;;;58.67;44.63;;;;;;;;;;5125968;27;20049;-80
2023/03/18 02:33:44;;;;;;;57.60;43.25;;;;;;;;;;5121139;27;20592;-79
2023/03/18 02:36:17;;;;;;;61.40;44.20;;;;;;;;;;5126509;27;20082;-80
2023/03/18 02:38:44;;;;;;;59.95;44.67;;;;;;;;;;5125591;27;20051;-80
2023/03/18 02:41:17;;;;;;;64.70;45.72;;;;;;;;;;5135530;27;20035;-80
2023/03/18 02:43:43;;;;;;;;;;;;;;;;;;5123494;27;20050;-79
2023/03/18 02:46:33;;;;;;;64.13;45.38;;;;;;;;;;5138357;27;19919;-79
2023/03/18 02:48:59;;;;;;;60.97;43.50;;;;;;;;;;5124812;27;20055;-80
2023/03/18 02:51:26;;;;;;;65.63;44.45;;;;;;;;;;5131206;27;20042;-80
2023/03/18 02:53:57;;;;;;;64.47;46.35;;;;;;;;;;5129521;27;20176;-80
2023/03/18 02:56:23;;;;;;;66.47;46.95;;;;;;;;;;5124102;27;20042;-80
2023/03/18 02:58:50;;;;;;;63.97;45.47;;;;;;;;;;5122769;27;20508;-79
2023/03/18 03:01:17;;;;;;;66.13;47.25;;;;;;;;;;5121751;27;20050;-79
2023/03/18 03:03:43;;;;;;;67.65;45.92;;;;;;;;;;5140123;27;20043;-80
2023/03/18 03:06:09;;;;;;;68.68;45.67;;;;;;;;;;5139126;27;20065;-80
2023/03/18 03:08:36;;;;;;;72.50;48.22;;;;;;;;;;5140770;27;20089;-80
2023/03/18 03:11:02;;;;;;;67.95;47.40;;;;;;;;;;5138507;27;20042;-79
2023/03/18 03:13:28;;;;;;;65.50;45.88;;;;;;;;;;5122071;27;20050;-80
2023/03/18 03:15:55;;;;;;;66.57;45.40;;;;;;;;;;5137416;27;20042;-80
2023/03/18 03:18:21;;;;;;;82.05;48.10;;;;;;;;;;5142449;27;20042;-80
2023/03/18 03:20:49;;;;;;;72.80;35.05;;;;;;;;;;5125116;27;20042;-80
2023/03/18 03:23:15;;;;;;;91.55;31.33;;;;;;;;;;5121597;27;20092;-80
2023/03/18 03:25:43;;;;;;;133.15;26.23;;;;;;;;;;5125317;27;20055;-80
2023/03/18 03:28:10;;;;;;;119.88;26.52;;;;;;;;;;5131561;27;20409;-80
2023/03/18 03:30:36;;;;;;;104.65;28.52;;;;;;;;;;5128962;27;20043;-81
2023/03/18 03:33:03;;;;;;;122.00;31.20;;;;;;;;;;5149090;27;20042;-80
2023/03/18 03:35:29;;;;;;;133.00;31.65;;;;;;;;;;5144897;27;20397;-80
2023/03/18 03:37:55;;;;;;;115.13;26.85;;;;;;;;;;5151641;27;20122;-81
2023/03/18 03:40:22;;;;;;;135.32;27.50;;;;;;;;;;5125358;27;20039;-80
2023/03/18 03:42:48;;;;;;;110.63;23.75;;;;;;;;;;5121973;27;20517;-80
2023/03/18 03:45:15;;;;;;;126.55;20.45;;;;;;;;;;5132308;27;20046;-80
2023/03/18 03:47:41;;;;;;;98.55;17.48;;;;;;;;;;5125728;27;20046;-80
2023/03/18 03:50:09;;;;;;;125.95;18.67;;;;;;;;;;5127285;27;20074;-80
2023/03/18 03:52:36;;;;;;;69.93;14.93;;;;;;;;;;5123591;27;20047;-80
2023/03/18 03:55:02;;;;;;;105.25;16.77;;;;;;;;;;5122098;27;20046;-80
2023/03/18 03:57:29;;;;;;;67.35;14.35;;;;;;;;;;5122995;27;20058;-80
2023/03/18 03:59:55;;;;;;;71.15;14.68;;;;;;;;;;5123782;27;20419;-80
2023/03/18 04:02:22;;;;;;;72.22;14.98;;;;;;;;;;5123098;27;20738;-80
2023/03/18 04:04:49;;;;;;;63.00;14.30;;;;;;;;;;5145731;27;20849;-80
2023/03/18 04:07:15;;;;;;;88.57;13.73;;;;;;;;;;5132983;27;20061;-80
2023/03/18 04:09:41;;;;;;;110.97;15.82;;;;;;;;;;5129241;27;20049;-80
2023/03/18 04:12:08;;;;;;;93.88;15.63;;;;;;;;;;5152179;27;20473;-80
2023/03/18 04:14:34;;;;;;;64.70;15.07;;;;;;;;;;5154004;27;20068;-79
2023/03/18 04:17:00;;;;;;;112.65;17.45;;;;;;;;;;5135300;27;20394;-80
2023/03/18 04:19:27;;;;;;;64.97;14.05;;;;;;;;;;5136152;27;20046;-80
2023/03/18 04:21:53;;;;;;;83.90;17.88;;;;;;;;;;5140006;27;20051;-80
2023/03/18 04:24:20;;;;;;;81.60;17.63;;;;;;;;;;5142608;27;20515;-80
2023/03/18 04:26:47;;;;;;;95.30;17.73;;;;;;;;;;5147711;27;20045;-80
2023/03/18 04:29:13;;;;;;;126.25;19.08;;;;;;;;;;5128369;27;20049;-80
2023/03/18 04:31:39;;;;;;;84.63;17.30;;;;;;;;;;5130180;27;20052;-80
2023/03/18 04:34:05;;;;;;;81.97;18.42;;;;;;;;;;5117781;27;20092;-80
2023/03/18 04:36:31;;;;;;;118.43;17.52;;;;;;;;;;5134604;27;20045;-80
2023/03/18 04:38:58;;;;;;;115.35;18.85;;;;;;;;;;5138304;27;20490;-80
2023/03/18 04:41:25;;;;;;;100.35;19.13;;;;;;;;;;5148651;27;20485;-80
2023/03/18 04:43:51;;;;;;;75.15;17.23;;;;;;;;;;5150677;27;20043;-80
2023/03/18 04:46:17;;;;;;;114.47;18.08;;;;;;;;;;5131475;27;20083;-80
2023/03/18 04:48:43;;;;;;;86.97;15.95;;;;;;;;;;5144933;27;20414;-80
2023/03/18 04:51:11;;;;;;;59.92;15.30;;;;;;;;;;5125226;27;20039;-80
2023/03/18 04:53:37;;;;;;;79.75;16.45;;;;;;;;;;5122245;27;20051;-80
2023/03/18 04:56:04;;;;;;;138.88;18.35;;;;;;;;;;5121758;27;20061;-80
2023/03/18 04:58:30;;;;;;;113.32;16.15;;;;;;;;;;5129165;27;20082;-80
2023/03/18 05:00:56;;;;;;;122.50;16.65;;;;;;;;;;5148214;27;20045;-80
2023/03/18 05:03:22;;;;;;;142.52;16.75;;;;;;;;;;5119989;27;20093;-80
2023/03/18 05:05:48;;;;;;;127.88;15.18;;;;;;;;;;5124522;27;20504;-80
2023/03/18 05:08:15;;;;;;;125.95;16.50;;;;;;;;;;5117666;27;20424;-81
2023/03/18 05:10:41;;;;;;;97.75;15.52;;;;;;;;;;5142967;27;20553;-80
2023/03/18 05:13:08;;;;;;;99.90;15.85;;;;;;;;;;5125705;27;20062;-80
2023/03/18 05:15:35;;;;;;;84.72;15.68;;;;;;;;;;5129979;27;20533;-80
2023/03/18 05:18:01;;;;;;;98.55;16.05;;;;;;;;;;5132419;27;20043;-80
2023/03/18 05:20:27;;;;;;;76.50;15.63;;;;;;;;;;5124849;27;20167;-80
2023/03/18 05:22:53;;;;;;;151.45;17.85;;;;;;;;;;5128632;27;20050;-81
2023/03/18 05:25:20;;;;;;;86.53;15.15;;;;;;;;;;5149629;27;20043;-80
2023/03/18 05:27:47;;;;;;;99.60;17.15;;;;;;;;;;5148112;27;20078;-80
2023/03/18 05:30:14;;;;;;;146.27;17.63;;;;;;;;;;5147874;27;20038;-80
2023/03/18 05:32:41;;;;;;;125.20;18.00;;;;;;;;;;5144899;27;20035;-80
2023/03/18 05:35:08;;;;;;;211.65;20.30;;;;;;;;;;5148375;27;20050;-79
2023/03/18 05:37:34;;;;;;;110.40;17.55;;;;;;;;;;5123775;27;20047;-80
2023/03/18 05:40:00;;;;;;;131.57;18.92;;;;;;;;;;5115113;27;20043;-80
2023/03/18 05:42:27;;;;;;;317.77;25.17;;;;;;;;;;5144546;27;20035;-80
2023/03/18 05:44:54;;;;;;;134.40;18.80;;;;;;;;;;5148661;27;20057;-80
2023/03/18 05:47:20;;;;;;;144.48;19.70;;;;;;;;;;5126119;27;20504;-80
2023/03/18 05:49:47;;;;;;;160.73;21.63;;;;;;;;;;5142261;27;20439;-80
2023/03/18 05:52:16;;;;;;;99.25;19.55;;;;;;;;;;5144489;27;20490;-79
2023/03/18 05:54:42;;;;;;;74.88;20.73;;;;;;;;;;5119979;27;20050;-80
2023/03/18 05:57:08;;;;;;;89.43;23.40;;;;;;;;;;5123304;27;20047;-80
2023/03/18 05:59:35;;;;;;;68.78;23.00;;;;;;;;;;5122938;27;20497;-80
2023/03/18 06:02:02;;;;;;;79.32;24.45;;;;;;;;;;5122216;27;20130;-80
2023/03/18 06:04:28;;;;;;;64.22;24.45;;;;;;;;;;5120612;27;20047;-80
2023/03/18 06:06:54;;;;;;;66.22;26.10;;;;;;;;;;5152043;27;20389;-80
2023/03/18 06:09:21;;;;;;;58.72;28.23;;;;;;;;;;5131635;27;20045;-80
2023/03/18 06:11:47;;;;;;;70.53;29.45;;;;;;;;;;5134121;27;20114;-80
2023/03/18 06:14:13;;;;;;;60.05;29.63;;;;;;;;;;5129176;28;20502;-80
2023/03/18 06:16:40;;;;;;;60.78;32.47;;;;;;;;;;5132771;28;20047;-80
2023/03/18 06:19:07;;;;;;;65.60;32.35;;;;;;;;;;5131972;27;20047;-80
2023/03/18 06:21:33;;;;;;;64.60;32.65;;;;;;;;;;5126119;27;20043;-80
2023/03/18 06:24:00;;;;;;;65.35;36.05;;;;;;;;;;5127868;27;20050;-80
2023/03/18 06:26:26;;;;;;;73.45;40.38;;;;;;;;;;5128935;27;20042;-79
2023/03/18 06:28:52;;;;;;;67.07;37.70;;;;;;;;;;5142766;27;20445;-80
2023/03/18 06:31:18;;;;;;;69.93;41.55;;;;;;;;;;5130590;27;20110;-79
2023/03/18 06:33:45;;;;;;;69.07;41.90;;;;;;;;;;5127989;27;20039;-80
2023/03/18 06:36:11;;;;;;;70.07;43.80;;;;;;;;;;5133022;27;20047;-80
2023/03/18 06:38:37;;;;;;;73.45;44.58;;;;;;;;;;5148161;27;20034;-80
2023/03/18 06:41:03;;;;;;;80.55;47.63;;;;;;;;;;5123664;27;20046;-80
2023/03/18 06:43:30;;;;;;;77.88;46.33;;;;;;;;;;5128946;27;20045;-80
2023/03/18 06:45:56;;;;;;;68.93;45.10;;;;;;;;;;5142843;27;20405;-80
2023/03/18 06:48:22;;;;;;;71.93;46.63;;;;;;;;;;5145617;27;20038;-80
2023/03/18 06:50:48;;;;;;;82.65;48.03;;;;;;;;;;5123535;27;20047;-80
2023/03/18 06:53:15;;;;;;;71.80;46.30;;;;;;;;;;5131864;27;20042;-80
2023/03/18 06:55:41;;;;;;;70.45;45.47;;;;;;;;;;5144429;27;20123;-80
2023/03/18 06:58:07;;;;;;;72.25;45.90;;;;;;;;;;5129041;27;20431;-80
2023/03/18 07:00:34;;;;;;;75.30;47.60;;;;;;;;;;5132972;27;20053;-80
2023/03/18 07:03:00;;;;;;;76.70;47.58;;;;;;;;;;5146984;27;20047;-81
2023/03/18 07:05:27;;;;;;;69.60;46.38;;;;;;;;;;5152799;27;20047;-80
2023/03/18 07:07:53;;;;;;;74.75;49.45;;;;;;;;;;5133768;27;20043;-80
2023/03/18 07:10:24;;;;;;;75.47;48.40;;;;;;;;;;5131538;27;20096;-80
2023/03/18 07:12:51;;;;;;;78.25;50.40;;;;;;;;;;5127161;27;20090;-80
2023/03/18 07:15:19;;;;;;;78.13;48.58;;;;;;;;;;5151413;27;20546;-80
2023/03/18 07:17:45;;;;;;;71.32;48.17;;;;;;;;;;5149660;27;20045;-80
2023/03/18 07:20:12;;;;;;;76.20;49.90;;;;;;;;;;5152404;27;20362;-80
2023/03/18 07:22:38;;;;;;;66.88;48.33;;;;;;;;;;5153944;27;20569;-80
2023/03/18 07:25:04;;;;;;;68.85;49.28;;;;;;;;;;5133640;27;20517;-79
2023/03/18 07:27:30;;;;;;;73.93;49.95;;;;;;;;;;5129965;27;20051;-80
2023/03/18 07:29:56;;;;;;;65.25;48.58;;;;;;;;;;5129430;27;20095;-80
2023/03/18 07:32:22;;;;;;;66.30;45.15;;;;;;;;;;5146036;27;20057;-80
2023/03/18 07:34:49;;;;;;;66.25;47.50;;;;;;;;;;5128542;27;21051;-80
2023/03/18 07:37:15;;;;;;;60.58;44.03;;;;;;;;;;5127350;27;20038;-80
2023/03/18 07:39:45;;;;;;;65.30;49.33;;;;;;;;;;5132807;27;20051;-80
2023/03/18 07:42:11;;;;;;;66.32;47.03;;;;;;;;;;5124900;27;20405;-80
2023/03/18 07:44:37;;;;;;;58.17;44.00;;;;;;;;;;5131305;27;20046;-80
2023/03/18 07:47:04;;;;;;;65.05;47.30;;;;;;;;;;5126886;27;20451;-80
2023/03/18 07:49:30;;;;;;;60.08;46.42;;;;;;;;;;5134212;27;20039;-80
2023/03/18 07:51:57;;;;;;;60.70;46.13;;;;;;;;;;5128603;27;20058;-80
2023/03/18 07:54:23;;;;;;;65.35;48.60;;;;;;;;;;5151536;27;20039;-80
2023/03/18 07:56:50;;;;;;;56.53;45.25;;;;;;;;;;5140883;27;20043;-80
2023/03/18 07:59:17;;;;;;;56.97;44.70;;;;;;;;;;5127206;27;20035;-80
2023/03/18 08:01:43;;;;;;;59.75;46.55;;;;;;;;;;5124285;27;20572;-80
2023/03/18 08:04:09;;;;;;;56.20;43.15;;;;;;;;;;5120068;27;20073;-80
2023/03/18 08:06:36;;;;;;;58.60;44.70;;;;;;;;;;5132217;27;20062;-81
2023/03/18 08:09:03;;;;;;;52.17;40.95;;;;;;;;;;5123569;27;20046;-81
2023/03/18 08:11:29;;;;;;;61.55;49.58;;;;;;;;;;5151206;27;20043;-80
2023/03/18 08:13:55;;;;;;;83.10;57.17;;;;;;;;;;5151403;27;20048;-80
2023/03/18 08:16:21;;;;;;;54.85;43.10;;;;;;;;;;5129746;27;20046;-80
2023/03/18 08:18:48;;;;;;;56.05;42.85;;;;;;;;;;5123657;27;20043;-80
2023/03/18 08:21:14;;;;;;;53.28;39.85;;;;;;;;;;5137171;27;20035;-80
2023/03/18 08:23:40;;;;;;;51.03;40.50;;;;;;;;;;5136538;27;20054;-81
2023/03/18 08:26:06;;;;;;;55.15;48.15;;;;;;;;;;5132970;27;20494;-80
2023/03/18 08:28:32;;;;;;;49.70;40.65;;;;;;;;;;5151900;27;20190;-81
2023/03/18 08:30:58;;;;;;;53.53;40.20;;;;;;;;;;5126725;27;20047;-81
2023/03/18 08:33:25;;;;;;;47.33;38.92;;;;;;;;;;5126611;27;20054;-81
2023/03/18 08:35:52;;;;;;;49.05;37.55;;;;;;;;;;5146510;27;20091;-80
2023/03/18 08:38:18;;;;;;;48.53;39.10;;;;;;;;;;5122808;27;20042;-81
2023/03/18 08:40:45;;;;;;;56.40;44.10;;;;;;;;;;5151389;27;20124;-81
2023/03/18 08:43:11;;;;;;;51.08;42.20;;;;;;;;;;5141498;27;20406;-81
2023/03/18 08:45:37;;;;;;;43.22;35.95;;;;;;;;;;5142366;27;20038;-81
2023/03/18 08:48:03;;;;;;;46.35;36.40;;;;;;;;;;5116689;27;20121;-81
2023/03/18 08:50:29;;;;;;;45.92;36.90;;;;;;;;;;5145174;27;20436;-81
2023/03/18 08:52:57;;;;;;;44.25;37.25;;;;;;;;;;5152078;27;20478;-81
2023/03/18 08:55:27;;;;;;;46.85;36.53;;;;;;;;;;5128853;27;20047;-80
2023/03/18 08:57:53;;;;;;;44.05;36.97;;;;;;;;;;5125815;27;20143;-81
2023/03/18 09:00:20;;;;;;;47.60;37.50;;;;;;;;;;5130531;27;20242;-81
2023/03/18 09:02:46;;;;;;;45.67;36.10;;;;;;;;;;5133440;27;20055;-81
2023/03/18 09:05:12;;;;;;;42.10;34.22;;;;;;;;;;5143751;27;20475;-82
2023/03/18 09:07:38;;;;;;;40.50;34.97;;;;;;;;;;5152672;27;20038;-81
2023/03/18 09:10:05;;;;;;;41.10;34.92;;;;;;;;;;5148470;27;20050;-81
2023/03/18 09:12:31;;;;;;;39.33;33.75;;;;;;;;;;5152838;27;20133;-81
2023/03/18 09:14:57;;;;;;;40.92;32.95;;;;;;;;;;5151798;27;20054;-81
2023/03/18 09:17:24;;;;;;;41.60;30.70;;;;;;;;;;5131662;27;20051;-81
2023/03/18 09:19:50;;;;;;;36.53;30.02;;;;;;;;;;5149323;27;20135;-81
2023/03/18 09:22:17;;;;;;;34.58;29.25;;;;;;;;;;5130979;27;20108;-81
2023/03/18 09:24:43;;;;;;;37.28;29.45;;;;;;;;;;5128103;27;20137;-81
2023/03/18 09:27:09;;;;;;;37.22;29.75;;;;;;;;;;5124985;27;20042;-82
2023/03/18 09:29:35;;;;;;;35.65;29.70;;;;;;;;;;5144660;27;20038;-80
2023/03/18 09:32:01;;;;;;;35.58;28.55;;;;;;;;;;5115297;27;20043;-81
2023/03/18 09:34:27;;;;;;;35.42;29.52;;;;;;;;;;5146205;27;20038;-81
2023/03/18 09:36:53;;;;;;;32.83;27.08;;;;;;;;;;5133644;27;20054;-81
2023/03/18 09:39:20;;;;;;;34.10;26.92;;;;;;;;;;5154175;27;20047;-81
2023/03/18 09:41:45;;;;;;;36.40;27.75;;;;;;;;;;5130545;27;20050;-81
2023/03/18 09:44:23;;;;;;;33.47;28.73;;;;;;;;;;5124919;27;20049;-81
2023/03/18 09:47:08;;;;;;;33.70;27.27;;;;;;;;;;5148845;27;20043;-81
2023/03/18 09:49:34;;;;;;;28.10;23.20;;;;;;;;;;5133732;27;20038;-80
2023/03/18 09:52:06;;;;;;;28.38;23.55;;;;;;;;;;5125922;27;20039;-78
2023/03/18 09:54:35;;;;;;;26.50;20.60;;;;;;;;;;5122699;27;20050;-81
2023/03/18 09:57:03;;;;;;;28.52;21.17;;;;;;;;;;5121235;27;20054;-81
2023/03/18 09:59:40;;;;;;;29.45;24.20;;;;;;;;;;5124666;27;20053;-81
2023/03/18 10:02:20;;;;;;;34.05;26.95;;;;;;;;;;5146625;27;20550;-82
2023/03/18 10:04:49;;;;;;;30.95;24.45;;;;;;;;;;5133305;27;20602;-80
2023/03/18 10:07:22;;;;;;;28.77;23.05;;;;;;;;;;5150013;27;20049;-80
2023/03/18 10:09:52;;;;;;;25.55;21.33;;;;;;;;;;5141341;27;20085;-81
2023/03/18 10:12:34;;;;;;;30.33;21.15;;;;;;;;;;5147949;27;20047;-80
2023/03/18 10:15:09;;;;;;;24.10;19.85;;;;;;;;;;5133471;27;20129;-80
2023/03/18 10:17:45;;;;;;;22.00;17.27;;;;;;;;;;5124826;27;20074;-81
2023/03/18 10:20:14;;;;;;;21.80;17.15;;;;;;;;;;5131867;27;20083;-80
2023/03/18 10:22:53;;;;;;;19.15;15.18;;;;;;;;;;5123336;27;20100;-81
2023/03/18 10:25:31;;;;;;;20.17;15.75;;;;;;;;;;5141256;27;20078;-80
2023/03/18 10:27:58;;;;;;;16.65;13.25;;;;;;;;;;5145543;27;20049;-80
2023/03/18 10:30:31;;;;;;;12.27;9.20;;;;;;;;;;5141289;27;20509;-80
2023/03/18 10:33:09;;;;;;;8.75;6.90;;;;;;;;;;5126862;27;20031;-80
2023/03/18 10:35:35;;;;;;;8.95;7.65;;;;;;;;;;5130116;27;20049;-81
2023/03/18 10:38:01;;;;;;;9.02;7.13;;;;;;;;;;5122304;27;20069;-81
2023/03/18 10:40:28;;;;;;;6.40;5.18;;;;;;;;;;5123597;27;20051;-80
2023/03/18 10:42:55;;;;;;;8.75;6.88;;;;;;;;;;5121409;27;20114;-80
2023/03/18 10:45:23;;;;;;;8.38;6.35;;;;;;;;;;5146506;27;20062;-81
2023/03/18 10:48:09;;;;;;;8.82;6.05;;;;;;;;;;5147474;27;20058;-80
2023/03/18 10:50:37;;;;;;;7.85;5.95;;;;;;;;;;5150833;27;20043;-80
2023/03/18 10:53:12;;;;;;;7.75;5.43;;;;;;;;;;5147252;27;20051;-81
2023/03/18 10:55:42;;;;;;;6.47;5.13;;;;;;;;;;5136077;27;20401;-81
2023/03/18 10:58:19;;;;;;;7.57;5.72;;;;;;;;;;5147544;27;20038;-80
2023/03/18 11:00:45;;;;;;;6.07;5.05;;;;;;;;;;5142842;27;20504;-81
2023/03/18 11:03:19;;;;;;;4.40;3.38;;;;;;;;;;5139989;27;20039;-81
2023/03/18 11:05:45;;;;;;;5.05;3.53;;;;;;;;;;5137349;27;20042;-81
2023/03/18 11:08:27;;;;;;;4.45;3.60;;;;;;;;;;5138443;27;20035;-82
2023/03/18 11:10:53;;;;;;;3.70;2.70;;;;;;;;;;5146799;27;20649;-81
2023/03/18 11:13:21;;;;;;;4.57;3.40;;;;;;;;;;5145074;27;20037;-81
2023/03/18 11:15:55;;;;;;;5.55;3.88;;;;;;;;;;5129536;27;20050;-80
2023/03/18 11:18:26;;;;;;;3.85;3.20;;;;;;;;;;5120884;27;22082;-81
2023/03/18 11:20:58;;;;;;;6.65;4.28;;;;;;;;;;5124203;27;20571;-82
2023/03/18 11:23:45;;;;;;;5.20;4.43;;;;;;;;;;5141276;27;20059;-81
2023/03/18 11:26:19;;;;;;;4.28;3.85;;;;;;;;;;5151177;27;20482;-80
2023/03/18 11:28:46;;;;;;;7.53;5.75;;;;;;;;;;5128963;27;20787;-79
2023/03/18 11:31:17;;;;;;;15.48;12.65;;;;;;;;;;5118046;27;20051;-81
2023/03/18 11:33:43;;;;;;;15.93;12.55;;;;;;;;;;5121818;27;20051;-81
2023/03/18 11:36:17;;;;;;;14.02;12.52;;;;;;;;;;5131473;27;20162;-80
2023/03/18 11:38:43;;;;;;;13.48;10.15;;;;;;;;;;5135707;27;20732;-80
2023/03/18 11:41:16;;;;;;;12.90;10.45;;;;;;;;;;5150869;27;20045;-81
2023/03/18 11:44:09;;;;;;;12.73;11.25;;;;;;;;;;5131909;27;20456;-82
2023/03/18 11:46:46;;;;;;;14.75;12.15;;;;;;;;;;5147699;27;20435;-81
2023/03/18 11:49:14;;;;;;;17.52;13.27;;;;;;;;;;5134385;28;20051;-81
2023/03/18 11:51:54;;;;;;;16.48;13.88;;;;;;;;;;5118512;27;20134;-81
2023/03/18 11:54:38;;;;;;;15.93;12.95;;;;;;;;;;5148119;27;20054;-81
2023/03/18 11:57:09;;;;;;;13.25;11.68;;;;;;;;;;5149992;27;20034;-81
2023/03/18 12:00:05;;;;;;;12.95;11.27;;;;;;;;;;5135362;27;20488;-81
2023/03/18 12:02:45;;;;;;;14.38;11.85;;;;;;;;;;5034198;28;20066;-80
2023/03/18 12:05:11;;;;;;;14.55;12.75;;;;;;;;;;5131627;27;20486;-81
2023/03/18 12:07:37;;;;;;;17.23;15.10;;;;;;;;;;5152556;27;20046;-80
2023/03/18 12:10:04;;;;;;;18.83;15.60;;;;;;;;;;5154148;27;20038;-81
2023/03/18 12:12:44;;;;;;;16.05;14.35;;;;;;;;;;5131940;27;20394;-80
2023/03/18 12:15:20;;;;;;;21.50;16.08;;;;;;;;;;5151439;27;20042;-81
2023/03/18 12:17:58;;;;;;;18.23;14.70;;;;;;;;;;5137978;27;20039;-80
2023/03/18 12:20:39;;;;;;;15.80;13.80;;;;;;;;;;5151965;27;20047;-80
2023/03/18 12:23:24;;;;;;;20.40;14.65;;;;;;;;;;5111842;27;1093625;-81
2023/03/18 12:25:55;;;;;;;17.30;13.35;;;;;;;;;;5155120;27;20082;-80
2023/03/18 12:28:21;;;;;;;12.13;10.23;;;;;;;;;;5134261;27;20452;-80
2023/03/18 12:30:50;;;;;;;12.38;9.38;;;;;;;;;;5151717;27;20129;-80
2023/03/18 12:33:28;;;;;;;10.70;8.00;;;;;;;;;;5129785;27;20046;-80
2023/03/18 12:36:12;;;;;;;9.50;7.68;;;;;;;;;;5153491;27;20046;-80
2023/03/18 12:38:42;;;;;;;10.50;8.70;;;;;;;;;;5153835;27;20046;-81
2023/03/18 12:41:24;;;;;;;10.55;8.60;;;;;;;;;;5132654;27;20034;-80
2023/03/18 12:43:50;;;;;;;9.85;8.52;;;;;;;;;;5154183;27;20468;-80
2023/03/18 12:46:22;;;;;;;12.02;9.15;;;;;;;;;;5151964;27;20038;-80
2023/03/18 12:48:54;;;;;;;13.93;9.45;;;;;;;;;;5145802;27;20477;-80
2023/03/18 12:51:30;;;;;;;11.70;9.13;;;;;;;;;;5154065;27;20426;-80
2023/03/18 12:53:58;;;;;;;10.02;7.93;;;;;;;;;;5152786;27;20051;-81
2023/03/18 12:56:27;;;;;;;12.82;8.90;;;;;;;;;;5151525;27;20043;-80
2023/03/18 12:59:08;;;;;;;14.48;10.00;;;;;;;;;;5131286;27;20047;-80
2023/03/18 13:01:38;;;;;;;11.45;8.45;;;;;;;;;;5115119;27;20047;-80
2023/03/18 13:04:23;;;;;;;12.40;8.38;;;;;;;;;;5145924;27;20049;-80
2023/03/18 13:07:02;;;;;;;11.18;8.52;;;;;;;;;;5128862;27;20045;-80
2023/03/18 13:09:31;;;;;;;10.98;8.70;;;;;;;;;;5151977;27;20057;-80
2023/03/18 13:12:07;;;;;;;12.32;9.15;;;;;;;;;;5135002;27;20068;-80
2023/03/18 13:14:46;;;;;;;13.07;9.57;;;;;;;;;;5153041;27;20066;-80
2023/03/18 13:17:18;;;;;;;9.15;7.95;;;;;;;;;;5154181;27;20053;-80
2023/03/18 13:19:44;;;;;;;11.00;8.70;;;;;;;;;;5140651;27;20064;-80
2023/03/18 13:22:13;;;;;;;9.10;7.22;;;;;;;;;;5152914;27;20127;-80
2023/03/18 13:24:45;;;;;;;11.75;9.60;;;;;;;;;;5149610;27;20058;-80
2023/03/18 13:27:12;;;;;;;12.93;9.10;;;;;;;;;;5131805;27;20126;-80
2023/03/18 13:29:57;;;;;;;12.15;9.82;;;;;;;;;;5151901;27;20081;-79
2023/03/18 13:32:29;;;;;;;13.13;10.20;;;;;;;;;;5131204;27;20075;-80
2023/03/18 13:35:01;;;;;;;12.32;9.43;;;;;;;;;;5150878;27;20125;-80
2023/03/18 13:37:36;;;;;;;12.93;10.25;;;;;;;;;;5133709;27;20065;-80
2023/03/18 13:40:03;;;;;;;13.07;11.07;;;;;;;;;;5132944;27;20418;-80
2023/03/18 13:42:30;;;;;;;14.85;11.30;;;;;;;;;;5120223;27;20042;-80
2023/03/18 13:44:57;;;;;;;13.05;11.38;;;;;;;;;;5132675;27;20081;-80
2023/03/18 13:47:24;;;;;;;15.05;11.32;;;;;;;;;;5152842;27;20050;-80
2023/03/18 13:49:58;;;;;;;12.95;11.50;;;;;;;;;;5133366;27;22037;-80
2023/03/18 13:52:35;;;;;;;17.23;12.73;;;;;;;;;;5134647;27;20077;-80
2023/03/18 13:55:03;;;;;;;15.95;13.00;;;;;;;;;;5147010;27;20042;-80
2023/03/18 13:57:30;;;;;;;15.20;12.32;;;;;;;;;;5152925;27;20039;-80
2023/03/18 14:00:14;;;;;;;14.60;11.65;;;;;;;;;;5148409;27;20387;-80
2023/03/18 14:02:42;;;;;;;15.65;11.73;;;;;;;;;;5132968;27;20041;-80
2023/03/18 14:05:32;;;;;;;17.13;13.15;;;;;;;;;;5127240;27;20088;-80
2023/03/18 14:07:58;;;;;;;15.20;12.32;;;;;;;;;;5106521;28;20051;-80
2023/03/18 14:10:24;;;;;;;15.43;13.15;;;;;;;;;;5133337;27;20055;-80
2023/03/18 14:12:50;;;;;;;17.83;14.23;;;;;;;;;;5132406;27;20502;-80
2023/03/18 14:15:28;;;;;;;17.90;14.45;;;;;;;;;;5147860;27;20042;-80
2023/03/18 14:17:57;;;;;;;17.20;13.95;;;;;;;;;;5113597;28;20058;-80
2023/03/18 14:20:23;;;;;;;18.20;14.68;;;;;;;;;;5128145;27;20451;-80
2023/03/18 14:22:53;;;;;;;17.17;14.05;;;;;;;;;;5124764;28;20047;-80
2023/03/18 14:25:22;;;;;;;17.40;14.02;;;;;;;;;;5130055;28;20095;-80
2023/03/18 14:27:51;;;;;;;18.77;14.10;;;;;;;;;;5131165;28;20058;-80